Bakersville, North Carolina
Current Conditions -  °F | °C
As of 9:55 PM on Wednesday 22 Oct 2014 (Local Time) from K0A9 Reporting Station
Overcast Overcast  
Wind Chill: 42°   Ceiling: 2000
Heat Index: 45°   Visibility: 10mi
Dew Point: 39°   Wind: 5mph
Humidity: 81%   Direction: 250°WSW
Pressure: 30.2"   Gusts: NA
Location:  36.02°N, 82.16°W
Report Text: K0A9 230155Z AUTO 25004KT 10SM OVC020 07/04 A3020 RMK
Loading
Personal Weather Stations






























Interactive Weather Map New forecast layout! Learn more

10-Day Weather Forecast

Advertisements
Track Severe Weather on mobile